sensor_id;sensor_type;location;lat;lon;timestamp;temperature;humidity
10722;DHT22;5412;59.450;18.124;2024-03-08T00:00:08;2.70;99.90
10722;DHT22;5412;59.450;18.124;2024-03-08T00:02:37;2.70;99.90
10722;DHT22;5412;59.450;18.124;2024-03-08T00:05:04;2.60;99.90
10722;DHT22;5412;59.450;18.124;2024-03-08T00:07:30;2.60;99.90
10722;DHT22;5412;59.450;18.124;2024-03-08T00:09:56;2.60;99.90
10722;DHT22;5412;59.450;18.124;2024-03-08T00:12:21;2.60;99.90
10722;DHT22;5412;59.450;18.124;2024-03-08T00:14:47;2.50;99.90
10722;DHT22;5412;59.450;18.124;2024-03-08T00:17:13;2.60;99.90
10722;DHT22;5412;59.450;18.124;2024-03-08T00:19:38;2.50;99.90
10722;DHT22;5412;59.450;18.124;2024-03-08T00:22:05;2.50;99.90
10722;DHT22;5412;59.450;18.124;2024-03-08T00:24:30;2.50;99.90
10722;DHT22;5412;59.450;18.124;2024-03-08T00:26:56;2.60;99.90
10722;DHT22;5412;59.450;18.124;2024-03-08T00:29:22;2.60;99.90
10722;DHT22;5412;59.450;18.124;2024-03-08T00:31:48;2.40;99.90
10722;DHT22;5412;59.450;18.124;2024-03-08T00:34:13;2.40;99.90
10722;DHT22;5412;59.450;18.124;2024-03-08T00:36:39;2.40;99.90
10722;DHT22;5412;59.450;18.124;2024-03-08T00:39:05;2.30;99.90
10722;DHT22;5412;59.450;18.124;2024-03-08T00:41:33;2.30;99.90
10722;DHT22;5412;59.450;18.124;2024-03-08T00:43:59;2.30;99.90
10722;DHT22;5412;59.450;18.124;2024-03-08T00:46:25;2.20;99.90
10722;DHT22;5412;59.450;18.124;2024-03-08T00:48:53;2.10;99.90
10722;DHT22;5412;59.450;18.124;2024-03-08T00:51:18;2.00;99.90
10722;DHT22;5412;59.450;18.124;2024-03-08T00:53:44;2.00;99.90
10722;DHT22;5412;59.450;18.124;2024-03-08T00:56:10;2.00;99.90
10722;DHT22;5412;59.450;18.124;2024-03-08T00:58:38;2.00;99.90
10722;DHT22;5412;59.450;18.124;2024-03-08T01:01:05;2.00;99.90
10722;DHT22;5412;59.450;18.124;2024-03-08T01:03:31;2.10;99.90
10722;DHT22;5412;59.450;18.124;2024-03-08T01:05:57;2.00;99.90
10722;DHT22;5412;59.450;18.124;2024-03-08T01:08:26;2.00;99.90
10722;DHT22;5412;59.450;18.124;2024-03-08T01:10:53;2.00;99.90
10722;DHT22;5412;59.450;18.124;2024-03-08T01:13:19;2.00;99.90
10722;DHT22;5412;59.450;18.124;2024-03-08T01:15:45;1.90;99.90
10722;DHT22;5412;59.450;18.124;2024-03-08T01:18:11;1.90;99.90
10722;DHT22;5412;59.450;18.124;2024-03-08T01:20:37;1.90;99.90
10722;DHT22;5412;59.450;18.124;2024-03-08T01:23:03;1.90;99.90
10722;DHT22;5412;59.450;18.124;2024-03-08T01:25:31;2.00;99.90
10722;DHT22;5412;59.450;18.124;2024-03-08T01:27:57;1.90;99.90
10722;DHT22;5412;59.450;18.124;2024-03-08T01:30:23;1.80;99.90
10722;DHT22;5412;59.450;18.124;2024-03-08T01:32:48;1.80;99.90
10722;DHT22;5412;59.450;18.124;2024-03-08T01:35:14;1.80;99.90
10722;DHT22;5412;59.450;18.124;2024-03-08T01:37:40;1.80;99.90
10722;DHT22;5412;59.450;18.124;2024-03-08T01:40:06;1.90;99.90
10722;DHT22;5412;59.450;18.124;2024-03-08T01:42:34;1.80;99.90
10722;DHT22;5412;59.450;18.124;2024-03-08T01:45:05;1.80;99.90
10722;DHT22;5412;59.450;18.124;2024-03-08T01:47:32;1.80;99.90
10722;DHT22;5412;59.450;18.124;2024-03-08T01:50:02;1.80;99.90
10722;DHT22;5412;59.450;18.124;2024-03-08T01:52:32;1.80;99.90
10722;DHT22;5412;59.450;18.124;2024-03-08T01:55:00;1.60;99.90
10722;DHT22;5412;59.450;18.124;2024-03-08T01:57:28;1.70;99.90
10722;DHT22;5412;59.450;18.124;2024-03-08T01:59:54;1.60;99.90
10722;DHT22;5412;59.450;18.124;2024-03-08T02:02:22;1.70;99.90
10722;DHT22;5412;59.450;18.124;2024-03-08T02:04:48;1.80;99.90
10722;DHT22;5412;59.450;18.124;2024-03-08T02:07:14;1.70;99.90
10722;DHT22;5412;59.450;18.124;2024-03-08T02:09:40;1.60;99.90
10722;DHT22;5412;59.450;18.124;2024-03-08T02:12:07;1.50;99.90
10722;DHT22;5412;59.450;18.124;2024-03-08T02:14:33;1.30;99.90
10722;DHT22;5412;59.450;18.124;2024-03-08T02:17:02;1.50;99.90
10722;DHT22;5412;59.450;18.124;2024-03-08T02:19:28;1.50;99.90
10722;DHT22;5412;59.450;18.124;2024-03-08T02:21:54;1.50;99.90
10722;DHT22;5412;59.450;18.124;2024-03-08T02:24:20;1.50;99.90
10722;DHT22;5412;59.450;18.124;2024-03-08T02:26:46;1.50;99.90
10722;DHT22;5412;59.450;18.124;2024-03-08T02:29:12;1.40;99.90
10722;DHT22;5412;59.450;18.124;2024-03-08T02:31:40;1.20;99.90
10722;DHT22;5412;59.450;18.124;2024-03-08T02:34:05;1.30;99.90
10722;DHT22;5412;59.450;18.124;2024-03-08T02:36:31;1.30;99.90
10722;DHT22;5412;59.450;18.124;2024-03-08T02:39:02;1.40;99.90
10722;DHT22;5412;59.450;18.124;2024-03-08T02:41:28;1.30;99.90
10722;DHT22;5412;59.450;18.124;2024-03-08T02:43:54;1.40;99.90
10722;DHT22;5412;59.450;18.124;2024-03-08T02:46:20;1.40;99.90
10722;DHT22;5412;59.450;18.124;2024-03-08T02:48:46;1.30;99.90
10722;DHT22;5412;59.450;18.124;2024-03-08T02:51:12;1.30;99.90
10722;DHT22;5412;59.450;18.124;2024-03-08T02:53:39;1.40;99.90
10722;DHT22;5412;59.450;18.124;2024-03-08T02:56:05;1.40;99.90
10722;DHT22;5412;59.450;18.124;2024-03-08T02:58:34;1.30;99.90
10722;DHT22;5412;59.450;18.124;2024-03-08T03:01:00;1.10;99.90
10722;DHT22;5412;59.450;18.124;2024-03-08T03:03:25;1.20;99.90
10722;DHT22;5412;59.450;18.124;2024-03-08T03:05:52;1.30;99.90
10722;DHT22;5412;59.450;18.124;2024-03-08T03:08:21;1.20;99.90
10722;DHT22;5412;59.450;18.124;2024-03-08T03:10:47;1.30;99.90
10722;DHT22;5412;59.450;18.124;2024-03-08T03:13:13;1.30;99.90
10722;DHT22;5412;59.450;18.124;2024-03-08T03:15:40;1.30;99.90
10722;DHT22;5412;59.450;18.124;2024-03-08T03:18:07;1.10;99.90
10722;DHT22;5412;59.450;18.124;2024-03-08T03:20:33;1.00;99.90
10722;DHT22;5412;59.450;18.124;2024-03-08T03:23:08;1.00;99.90
10722;DHT22;5412;59.450;18.124;2024-03-08T03:25:35;1.10;99.90
10722;DHT22;5412;59.450;18.124;2024-03-08T03:28:01;1.00;99.90
10722;DHT22;5412;59.450;18.124;2024-03-08T03:30:27;1.10;99.90
10722;DHT22;5412;59.450;18.124;2024-03-08T03:33:02;1.10;99.90
10722;DHT22;5412;59.450;18.124;2024-03-08T03:35:32;1.20;99.90
10722;DHT22;5412;59.450;18.124;2024-03-08T03:37:58;1.10;99.90
10722;DHT22;5412;59.450;18.124;2024-03-08T03:40:41;1.00;99.90
10722;DHT22;5412;59.450;18.124;2024-03-08T03:43:07;0.90;99.90
10722;DHT22;5412;59.450;18.124;2024-03-08T03:45:35;1.00;99.90
10722;DHT22;5412;59.450;18.124;2024-03-08T03:48:07;1.00;99.90
10722;DHT22;5412;59.450;18.124;2024-03-08T03:50:36;0.90;99.90
10722;DHT22;5412;59.450;18.124;2024-03-08T03:53:03;0.90;99.90
10722;DHT22;5412;59.450;18.124;2024-03-08T03:55:30;0.70;99.90
10722;DHT22;5412;59.450;18.124;2024-03-08T03:57:57;0.70;99.90
10722;DHT22;5412;59.450;18.124;2024-03-08T04:00:24;0.60;99.90
10722;DHT22;5412;59.450;18.124;2024-03-08T04:02:52;0.60;99.90
10722;DHT22;5412;59.450;18.124;2024-03-08T04:05:18;0.60;99.90
10722;DHT22;5412;59.450;18.124;2024-03-08T04:07:43;0.70;99.90
10722;DHT22;5412;59.450;18.124;2024-03-08T04:10:11;0.50;99.90
10722;DHT22;5412;59.450;18.124;2024-03-08T04:12:37;0.50;99.90
10722;DHT22;5412;59.450;18.124;2024-03-08T04:15:04;0.50;99.90
10722;DHT22;5412;59.450;18.124;2024-03-08T04:17:34;0.50;99.90
10722;DHT22;5412;59.450;18.124;2024-03-08T04:20:05;0.50;99.90
10722;DHT22;5412;59.450;18.124;2024-03-08T04:22:38;0.40;99.90
10722;DHT22;5412;59.450;18.124;2024-03-08T04:25:05;0.40;99.90
10722;DHT22;5412;59.450;18.124;2024-03-08T04:27:32;0.40;99.90
10722;DHT22;5412;59.450;18.124;2024-03-08T04:29:58;0.50;99.90
10722;DHT22;5412;59.450;18.124;2024-03-08T04:32:25;0.40;99.90
10722;DHT22;5412;59.450;18.124;2024-03-08T04:34:50;0.50;99.90
10722;DHT22;5412;59.450;18.124;2024-03-08T04:37:16;0.60;99.90
10722;DHT22;5412;59.450;18.124;2024-03-08T04:39:47;0.60;99.90
10722;DHT22;5412;59.450;18.124;2024-03-08T04:42:13;0.60;99.90
10722;DHT22;5412;59.450;18.124;2024-03-08T04:44:40;0.60;99.90
10722;DHT22;5412;59.450;18.124;2024-03-08T04:47:06;0.60;99.90
10722;DHT22;5412;59.450;18.124;2024-03-08T04:49:35;0.60;99.90
10722;DHT22;5412;59.450;18.124;2024-03-08T04:52:04;0.60;99.90
10722;DHT22;5412;59.450;18.124;2024-03-08T04:54:30;0.50;99.90
10722;DHT22;5412;59.450;18.124;2024-03-08T04:56:56;0.50;99.90
10722;DHT22;5412;59.450;18.124;2024-03-08T04:59:22;0.40;99.90
10722;DHT22;5412;59.450;18.124;2024-03-08T05:01:48;0.40;99.90
10722;DHT22;5412;59.450;18.124;2024-03-08T05:04:14;0.20;99.90
10722;DHT22;5412;59.450;18.124;2024-03-08T05:06:40;0.30;99.90
10722;DHT22;5412;59.450;18.124;2024-03-08T05:09:06;0.20;99.90
10722;DHT22;5412;59.450;18.124;2024-03-08T05:11:40;0.30;99.90
10722;DHT22;5412;59.450;18.124;2024-03-08T05:14:06;0.30;99.90
10722;DHT22;5412;59.450;18.124;2024-03-08T05:16:31;0.30;99.90
10722;DHT22;5412;59.450;18.124;2024-03-08T05:18:57;0.20;99.90
10722;DHT22;5412;59.450;18.124;2024-03-08T05:21:23;0.20;99.90
10722;DHT22;5412;59.450;18.124;2024-03-08T05:23:49;0.20;99.90
10722;DHT22;5412;59.450;18.124;2024-03-08T05:26:16;0.20;99.90
10722;DHT22;5412;59.450;18.124;2024-03-08T05:28:42;0.30;99.90
10722;DHT22;5412;59.450;18.124;2024-03-08T05:31:08;0.30;99.90
10722;DHT22;5412;59.450;18.124;2024-03-08T05:33:34;0.30;99.90
10722;DHT22;5412;59.450;18.124;2024-03-08T05:36:00;0.20;99.90
10722;DHT22;5412;59.450;18.124;2024-03-08T05:38:29;0.30;99.90
10722;DHT22;5412;59.450;18.124;2024-03-08T05:40:55;0.40;99.90
10722;DHT22;5412;59.450;18.124;2024-03-08T05:43:20;0.10;99.90
10722;DHT22;5412;59.450;18.124;2024-03-08T05:45:46;0.40;99.90
10722;DHT22;5412;59.450;18.124;2024-03-08T05:48:13;0.50;99.90
10722;DHT22;5412;59.450;18.124;2024-03-08T05:50:39;0.40;99.90
10722;DHT22;5412;59.450;18.124;2024-03-08T05:53:05;0.30;99.90
10722;DHT22;5412;59.450;18.124;2024-03-08T05:55:32;0.40;99.90
10722;DHT22;5412;59.450;18.124;2024-03-08T05:58:01;0.40;99.90
10722;DHT22;5412;59.450;18.124;2024-03-08T06:00:27;0.50;99.90
10722;DHT22;5412;59.450;18.124;2024-03-08T06:02:53;0.50;99.90
10722;DHT22;5412;59.450;18.124;2024-03-08T06:05:19;0.50;99.90
10722;DHT22;5412;59.450;18.124;2024-03-08T06:07:45;0.40;99.90
10722;DHT22;5412;59.450;18.124;2024-03-08T06:10:11;0.40;99.90
10722;DHT22;5412;59.450;18.124;2024-03-08T06:12:42;0.20;99.90
10722;DHT22;5412;59.450;18.124;2024-03-08T06:15:09;0.40;99.90
10722;DHT22;5412;59.450;18.124;2024-03-08T06:17:36;0.40;99.90
10722;DHT22;5412;59.450;18.124;2024-03-08T06:20:02;0.40;99.90
10722;DHT22;5412;59.450;18.124;2024-03-08T06:22:29;0.50;99.90
10722;DHT22;5412;59.450;18.124;2024-03-08T06:24:56;0.30;99.90
10722;DHT22;5412;59.450;18.124;2024-03-08T06:27:22;0.50;99.90
10722;DHT22;5412;59.450;18.124;2024-03-08T06:29:47;0.60;99.90
10722;DHT22;5412;59.450;18.124;2024-03-08T06:32:14;0.60;99.90
10722;DHT22;5412;59.450;18.124;2024-03-08T06:34:41;0.60;99.90
10722;DHT22;5412;59.450;18.124;2024-03-08T06:37:06;0.60;99.90
10722;DHT22;5412;59.450;18.124;2024-03-08T06:39:32;0.60;99.90
10722;DHT22;5412;59.450;18.124;2024-03-08T06:41:59;0.70;99.90
10722;DHT22;5412;59.450;18.124;2024-03-08T06:44:25;0.70;99.90
10722;DHT22;5412;59.450;18.124;2024-03-08T06:46:51;0.70;99.90
10722;DHT22;5412;59.450;18.124;2024-03-08T06:49:17;0.70;99.90
10722;DHT22;5412;59.450;18.124;2024-03-08T06:51:42;0.60;99.90
10722;DHT22;5412;59.450;18.124;2024-03-08T06:54:08;0.60;99.90
10722;DHT22;5412;59.450;18.124;2024-03-08T06:56:37;0.50;99.90
10722;DHT22;5412;59.450;18.124;2024-03-08T06:59:03;0.30;99.90
10722;DHT22;5412;59.450;18.124;2024-03-08T07:01:29;0.30;99.90
10722;DHT22;5412;59.450;18.124;2024-03-08T07:03:59;0.40;99.90
10722;DHT22;5412;59.450;18.124;2024-03-08T07:06:27;0.40;99.90
10722;DHT22;5412;59.450;18.124;2024-03-08T07:08:54;0.50;99.90
10722;DHT22;5412;59.450;18.124;2024-03-08T07:11:20;0.60;99.90
10722;DHT22;5412;59.450;18.124;2024-03-08T07:13:46;0.70;99.90
10722;DHT22;5412;59.450;18.124;2024-03-08T07:16:11;0.70;99.90
10722;DHT22;5412;59.450;18.124;2024-03-08T07:18:37;0.90;99.90
10722;DHT22;5412;59.450;18.124;2024-03-08T07:21:09;1.10;99.90
10722;DHT22;5412;59.450;18.124;2024-03-08T07:23:35;1.30;99.90
10722;DHT22;5412;59.450;18.124;2024-03-08T07:26:28;1.50;99.90
10722;DHT22;5412;59.450;18.124;2024-03-08T07:28:55;1.40;99.90
10722;DHT22;5412;59.450;18.124;2024-03-08T07:31:21;1.40;99.90
10722;DHT22;5412;59.450;18.124;2024-03-08T07:33:57;1.50;99.90
10722;DHT22;5412;59.450;18.124;2024-03-08T07:36:24;1.60;99.90
10722;DHT22;5412;59.450;18.124;2024-03-08T07:38:50;1.60;99.90
10722;DHT22;5412;59.450;18.124;2024-03-08T07:41:15;1.60;99.90
10722;DHT22;5412;59.450;18.124;2024-03-08T07:43:42;1.80;99.90
10722;DHT22;5412;59.450;18.124;2024-03-08T07:46:09;1.90;99.90
10722;DHT22;5412;59.450;18.124;2024-03-08T07:48:36;1.90;99.90
10722;DHT22;5412;59.450;18.124;2024-03-08T07:51:02;2.10;99.90
10722;DHT22;5412;59.450;18.124;2024-03-08T07:53:28;2.40;99.90
10722;DHT22;5412;59.450;18.124;2024-03-08T07:55:54;2.50;99.90
10722;DHT22;5412;59.450;18.124;2024-03-08T07:58:20;2.40;99.90
10722;DHT22;5412;59.450;18.124;2024-03-08T08:00:46;2.30;99.90
10722;DHT22;5412;59.450;18.124;2024-03-08T08:03:11;2.50;99.90
10722;DHT22;5412;59.450;18.124;2024-03-08T08:05:38;2.40;99.90
10722;DHT22;5412;59.450;18.124;2024-03-08T08:08:05;2.70;99.90
10722;DHT22;5412;59.450;18.124;2024-03-08T08:10:32;2.60;99.90
10722;DHT22;5412;59.450;18.124;2024-03-08T08:12:58;2.70;99.90
10722;DHT22;5412;59.450;18.124;2024-03-08T08:15:24;2.80;99.90
10722;DHT22;5412;59.450;18.124;2024-03-08T08:17:50;2.90;99.90
10722;DHT22;5412;59.450;18.124;2024-03-08T08:20:18;2.90;99.90
10722;DHT22;5412;59.450;18.124;2024-03-08T08:22:44;3.10;99.90
10722;DHT22;5412;59.450;18.124;2024-03-08T08:25:10;3.20;99.90
10722;DHT22;5412;59.450;18.124;2024-03-08T08:27:41;3.20;99.90
10722;DHT22;5412;59.450;18.124;2024-03-08T08:30:08;3.30;99.90
10722;DHT22;5412;59.450;18.124;2024-03-08T08:32:35;3.60;99.90
10722;DHT22;5412;59.450;18.124;2024-03-08T08:35:10;3.60;99.90
10722;DHT22;5412;59.450;18.124;2024-03-08T08:37:41;3.60;99.90
10722;DHT22;5412;59.450;18.124;2024-03-08T08:40:07;3.70;99.90
10722;DHT22;5412;59.450;18.124;2024-03-08T08:42:40;3.70;99.90
10722;DHT22;5412;59.450;18.124;2024-03-08T08:45:06;3.80;99.90
10722;DHT22;5412;59.450;18.124;2024-03-08T08:47:36;4.00;99.90
10722;DHT22;5412;59.450;18.124;2024-03-08T08:50:03;4.20;99.90
10722;DHT22;5412;59.450;18.124;2024-03-08T08:52:31;4.30;99.90
10722;DHT22;5412;59.450;18.124;2024-03-08T08:54:57;4.50;99.90
10722;DHT22;5412;59.450;18.124;2024-03-08T08:57:23;4.40;99.90
10722;DHT22;5412;59.450;18.124;2024-03-08T08:59:49;4.20;99.90
10722;DHT22;5412;59.450;18.124;2024-03-08T09:02:15;4.30;99.90
10722;DHT22;5412;59.450;18.124;2024-03-08T09:04:42;4.40;99.90
10722;DHT22;5412;59.450;18.124;2024-03-08T09:07:09;4.30;99.90
10722;DHT22;5412;59.450;18.124;2024-03-08T09:09:35;4.40;99.90
10722;DHT22;5412;59.450;18.124;2024-03-08T09:12:01;4.50;99.90
10722;DHT22;5412;59.450;18.124;2024-03-08T09:14:27;4.50;99.90
10722;DHT22;5412;59.450;18.124;2024-03-08T09:16:53;4.50;99.90
10722;DHT22;5412;59.450;18.124;2024-03-08T09:19:18;4.70;99.90
10722;DHT22;5412;59.450;18.124;2024-03-08T09:21:45;4.70;99.90
10722;DHT22;5412;59.450;18.124;2024-03-08T09:24:11;4.70;99.90
10722;DHT22;5412;59.450;18.124;2024-03-08T09:26:38;4.90;99.90
10722;DHT22;5412;59.450;18.124;2024-03-08T09:29:03;5.00;99.90
10722;DHT22;5412;59.450;18.124;2024-03-08T09:31:30;5.00;99.90
10722;DHT22;5412;59.450;18.124;2024-03-08T09:33:56;5.00;99.90
10722;DHT22;5412;59.450;18.124;2024-03-08T09:36:22;5.20;99.90
10722;DHT22;5412;59.450;18.124;2024-03-08T09:38:48;5.00;99.90
10722;DHT22;5412;59.450;18.124;2024-03-08T09:41:15;5.00;99.90
10722;DHT22;5412;59.450;18.124;2024-03-08T09:43:41;5.00;99.90
10722;DHT22;5412;59.450;18.124;2024-03-08T09:46:07;5.00;99.90
10722;DHT22;5412;59.450;18.124;2024-03-08T09:48:33;5.00;99.90
10722;DHT22;5412;59.450;18.124;2024-03-08T09:51:00;5.00;99.90
10722;DHT22;5412;59.450;18.124;2024-03-08T09:53:26;5.00;99.90
10722;DHT22;5412;59.450;18.124;2024-03-08T09:55:52;4.90;99.90
10722;DHT22;5412;59.450;18.124;2024-03-08T09:58:18;5.00;99.90
10722;DHT22;5412;59.450;18.124;2024-03-08T10:01:16;5.00;99.90
10722;DHT22;5412;59.450;18.124;2024-03-08T10:03:43;6.10;99.90
10722;DHT22;5412;59.450;18.124;2024-03-08T10:06:09;5.20;99.90
10722;DHT22;5412;59.450;18.124;2024-03-08T10:08:35;5.30;99.90
10722;DHT22;5412;59.450;18.124;2024-03-08T10:11:02;5.40;99.90
10722;DHT22;5412;59.450;18.124;2024-03-08T10:13:28;5.40;99.90
10722;DHT22;5412;59.450;18.124;2024-03-08T10:15:54;5.60;99.90
10722;DHT22;5412;59.450;18.124;2024-03-08T10:18:20;5.60;99.90
10722;DHT22;5412;59.450;18.124;2024-03-08T10:20:56;5.70;99.90
10722;DHT22;5412;59.450;18.124;2024-03-08T10:23:29;5.70;99.90
10722;DHT22;5412;59.450;18.124;2024-03-08T10:25:55;5.70;99.90
10722;DHT22;5412;59.450;18.124;2024-03-08T10:28:23;5.50;99.90
10722;DHT22;5412;59.450;18.124;2024-03-08T10:30:52;5.50;99.90
10722;DHT22;5412;59.450;18.124;2024-03-08T10:33:18;5.40;99.90
10722;DHT22;5412;59.450;18.124;2024-03-08T10:35:44;5.60;99.90
10722;DHT22;5412;59.450;18.124;2024-03-08T10:38:12;5.40;99.90
10722;DHT22;5412;59.450;18.124;2024-03-08T10:40:40;5.50;99.90
10722;DHT22;5412;59.450;18.124;2024-03-08T10:43:15;5.30;99.90
10722;DHT22;5412;59.450;18.124;2024-03-08T10:45:46;5.20;99.90
10722;DHT22;5412;59.450;18.124;2024-03-08T10:48:43;5.30;99.90
10722;DHT22;5412;59.450;18.124;2024-03-08T10:51:11;5.40;99.90
10722;DHT22;5412;59.450;18.124;2024-03-08T10:53:38;5.50;99.90
10722;DHT22;5412;59.450;18.124;2024-03-08T10:56:07;5.50;99.90
10722;DHT22;5412;59.450;18.124;2024-03-08T10:58:36;5.50;99.90
10722;DHT22;5412;59.450;18.124;2024-03-08T11:01:02;5.20;99.90
10722;DHT22;5412;59.450;18.124;2024-03-08T11:06:16;5.30;99.90
10722;DHT22;5412;59.450;18.124;2024-03-08T11:08:43;5.50;99.90
10722;DHT22;5412;59.450;18.124;2024-03-08T11:11:26;5.70;99.90
10722;DHT22;5412;59.450;18.124;2024-03-08T11:13:58;5.70;99.90
10722;DHT22;5412;59.450;18.124;2024-03-08T11:19:07;5.60;99.90
10722;DHT22;5412;59.450;18.124;2024-03-08T11:21:57;5.90;99.90
10722;DHT22;5412;59.450;18.124;2024-03-08T11:24:23;5.90;99.90
10722;DHT22;5412;59.450;18.124;2024-03-08T11:26:49;6.00;99.90
10722;DHT22;5412;59.450;18.124;2024-03-08T11:32:15;5.90;99.90
10722;DHT22;5412;59.450;18.124;2024-03-08T11:34:51;5.90;99.90
10722;DHT22;5412;59.450;18.124;2024-03-08T11:37:18;5.80;99.90
10722;DHT22;5412;59.450;18.124;2024-03-08T11:42:14;6.00;99.90
10722;DHT22;5412;59.450;18.124;2024-03-08T11:44:41;5.90;99.90
10722;DHT22;5412;59.450;18.124;2024-03-08T11:47:10;5.80;99.90
10722;DHT22;5412;59.450;18.124;2024-03-08T11:49:37;5.80;99.90
10722;DHT22;5412;59.450;18.124;2024-03-08T11:52:03;5.90;99.90
10722;DHT22;5412;59.450;18.124;2024-03-08T11:54:29;5.90;99.90
10722;DHT22;5412;59.450;18.124;2024-03-08T11:56:56;5.80;99.90
10722;DHT22;5412;59.450;18.124;2024-03-08T11:59:27;5.90;99.90
10722;DHT22;5412;59.450;18.124;2024-03-08T12:02:19;5.90;99.90
10722;DHT22;5412;59.450;18.124;2024-03-08T12:04:45;6.00;99.90
10722;DHT22;5412;59.450;18.124;2024-03-08T12:07:14;6.00;99.90
10722;DHT22;5412;59.450;18.124;2024-03-08T12:09:44;6.00;99.90
10722;DHT22;5412;59.450;18.124;2024-03-08T12:12:12;6.10;99.90
10722;DHT22;5412;59.450;18.124;2024-03-08T12:14:38;6.10;99.90
10722;DHT22;5412;59.450;18.124;2024-03-08T12:17:04;5.90;99.90
10722;DHT22;5412;59.450;18.124;2024-03-08T12:19:31;5.80;99.90
10722;DHT22;5412;59.450;18.124;2024-03-08T12:22:07;5.90;99.90
10722;DHT22;5412;59.450;18.124;2024-03-08T12:24:34;5.80;99.90
10722;DHT22;5412;59.450;18.124;2024-03-08T12:27:00;5.80;99.90
10722;DHT22;5412;59.450;18.124;2024-03-08T12:29:26;5.80;99.90
10722;DHT22;5412;59.450;18.124;2024-03-08T12:31:54;5.80;99.90
10722;DHT22;5412;59.450;18.124;2024-03-08T12:34:20;5.80;99.90
10722;DHT22;5412;59.450;18.124;2024-03-08T12:36:50;5.80;99.90
10722;DHT22;5412;59.450;18.124;2024-03-08T12:39:19;5.80;99.90
10722;DHT22;5412;59.450;18.124;2024-03-08T12:41:55;6.00;99.90
10722;DHT22;5412;59.450;18.124;2024-03-08T12:44:22;6.00;99.90
10722;DHT22;5412;59.450;18.124;2024-03-08T12:46:48;5.90;99.90
10722;DHT22;5412;59.450;18.124;2024-03-08T12:49:14;6.00;99.90
10722;DHT22;5412;59.450;18.124;2024-03-08T12:51:46;6.00;99.90
10722;DHT22;5412;59.450;18.124;2024-03-08T12:54:12;5.90;99.90
10722;DHT22;5412;59.450;18.124;2024-03-08T12:56:38;5.90;99.90
10722;DHT22;5412;59.450;18.124;2024-03-08T12:59:06;6.00;99.90
10722;DHT22;5412;59.450;18.124;2024-03-08T13:01:33;6.00;99.90
10722;DHT22;5412;59.450;18.124;2024-03-08T13:04:00;6.10;99.90
10722;DHT22;5412;59.450;18.124;2024-03-08T13:06:28;6.10;99.90
10722;DHT22;5412;59.450;18.124;2024-03-08T13:08:55;6.20;99.90
10722;DHT22;5412;59.450;18.124;2024-03-08T13:11:22;6.10;99.90
10722;DHT22;5412;59.450;18.124;2024-03-08T13:13:49;6.10;99.90
10722;DHT22;5412;59.450;18.124;2024-03-08T13:16:15;6.20;99.90
10722;DHT22;5412;59.450;18.124;2024-03-08T13:18:41;6.00;99.90
10722;DHT22;5412;59.450;18.124;2024-03-08T13:21:10;6.20;99.90
10722;DHT22;5412;59.450;18.124;2024-03-08T13:23:38;6.30;99.90
10722;DHT22;5412;59.450;18.124;2024-03-08T13:26:10;6.40;99.90
10722;DHT22;5412;59.450;18.124;2024-03-08T13:28:48;6.20;99.90
10722;DHT22;5412;59.450;18.124;2024-03-08T13:31:22;6.00;99.90
10722;DHT22;5412;59.450;18.124;2024-03-08T13:33:48;6.10;99.90
10722;DHT22;5412;59.450;18.124;2024-03-08T13:36:15;6.10;99.90
10722;DHT22;5412;59.450;18.124;2024-03-08T13:38:45;6.30;99.90
10722;DHT22;5412;59.450;18.124;2024-03-08T13:41:12;6.50;99.90
10722;DHT22;5412;59.450;18.124;2024-03-08T13:43:40;6.60;99.90
10722;DHT22;5412;59.450;18.124;2024-03-08T13:46:06;6.90;99.90
10722;DHT22;5412;59.450;18.124;2024-03-08T13:48:33;7.20;99.90
10722;DHT22;5412;59.450;18.124;2024-03-08T13:50:59;7.60;99.90
10722;DHT22;5412;59.450;18.124;2024-03-08T13:53:26;8.10;99.90
10722;DHT22;5412;59.450;18.124;2024-03-08T13:55:52;7.70;99.90
10722;DHT22;5412;59.450;18.124;2024-03-08T13:58:17;8.30;99.90
10722;DHT22;5412;59.450;18.124;2024-03-08T14:00:44;8.60;99.90
10722;DHT22;5412;59.450;18.124;2024-03-08T14:03:11;9.30;99.90
10722;DHT22;5412;59.450;18.124;2024-03-08T14:05:41;9.90;99.90
10722;DHT22;5412;59.450;18.124;2024-03-08T14:08:11;9.90;99.90
10722;DHT22;5412;59.450;18.124;2024-03-08T14:10:38;10.30;99.90
10722;DHT22;5412;59.450;18.124;2024-03-08T14:13:04;10.80;99.90
10722;DHT22;5412;59.450;18.124;2024-03-08T14:15:32;11.10;99.90
10722;DHT22;5412;59.450;18.124;2024-03-08T14:17:58;11.30;99.90
10722;DHT22;5412;59.450;18.124;2024-03-08T14:20:24;10.90;99.90
10722;DHT22;5412;59.450;18.124;2024-03-08T14:22:54;11.30;99.90
10722;DHT22;5412;59.450;18.124;2024-03-08T14:25:21;11.20;99.90
10722;DHT22;5412;59.450;18.124;2024-03-08T14:27:50;11.70;99.90
10722;DHT22;5412;59.450;18.124;2024-03-08T14:30:17;11.60;99.90
10722;DHT22;5412;59.450;18.124;2024-03-08T14:33:01;10.70;99.90
10722;DHT22;5412;59.450;18.124;2024-03-08T14:35:27;11.10;99.90
10722;DHT22;5412;59.450;18.124;2024-03-08T14:37:55;9.30;99.90
10722;DHT22;5412;59.450;18.124;2024-03-08T14:40:23;8.10;99.90
10722;DHT22;5412;59.450;18.124;2024-03-08T14:42:49;7.10;99.90
10722;DHT22;5412;59.450;18.124;2024-03-08T14:45:16;6.10;99.90
10722;DHT22;5412;59.450;18.124;2024-03-08T14:47:47;5.80;99.90
10722;DHT22;5412;59.450;18.124;2024-03-08T14:50:20;5.60;99.90
10722;DHT22;5412;59.450;18.124;2024-03-08T14:52:48;5.00;99.90
10722;DHT22;5412;59.450;18.124;2024-03-08T14:55:17;5.40;99.90
10722;DHT22;5412;59.450;18.124;2024-03-08T14:57:45;5.00;99.90
10722;DHT22;5412;59.450;18.124;2024-03-08T15:00:12;4.70;99.90
10722;DHT22;5412;59.450;18.124;2024-03-08T15:02:56;4.60;99.90
10722;DHT22;5412;59.450;18.124;2024-03-08T15:05:25;4.30;99.90
10722;DHT22;5412;59.450;18.124;2024-03-08T15:07:58;3.90;99.90
10722;DHT22;5412;59.450;18.124;2024-03-08T15:10:26;3.50;99.90
10722;DHT22;5412;59.450;18.124;2024-03-08T15:12:54;3.10;99.90
10722;DHT22;5412;59.450;18.124;2024-03-08T15:15:22;3.10;99.90
10722;DHT22;5412;59.450;18.124;2024-03-08T15:17:50;3.10;99.90
10722;DHT22;5412;59.450;18.124;2024-03-08T15:20:17;3.20;99.90
10722;DHT22;5412;59.450;18.124;2024-03-08T15:22:49;3.10;99.90
10722;DHT22;5412;59.450;18.124;2024-03-08T15:25:15;3.00;99.90
10722;DHT22;5412;59.450;18.124;2024-03-08T15:27:54;2.80;99.90
10722;DHT22;5412;59.450;18.124;2024-03-08T15:30:21;2.50;99.90
10722;DHT22;5412;59.450;18.124;2024-03-08T15:32:56;2.50;99.90
10722;DHT22;5412;59.450;18.124;2024-03-08T15:35:25;2.50;99.90
10722;DHT22;5412;59.450;18.124;2024-03-08T15:37:53;2.50;99.90
10722;DHT22;5412;59.450;18.124;2024-03-08T15:40:20;2.20;99.90
10722;DHT22;5412;59.450;18.124;2024-03-08T15:42:58;2.00;99.90
10722;DHT22;5412;59.450;18.124;2024-03-08T15:45:25;1.80;99.90
10722;DHT22;5412;59.450;18.124;2024-03-08T15:47:55;1.90;99.90
10722;DHT22;5412;59.450;18.124;2024-03-08T15:50:21;1.80;99.90
10722;DHT22;5412;59.450;18.124;2024-03-08T15:52:49;1.70;99.90
10722;DHT22;5412;59.450;18.124;2024-03-08T15:55:20;1.60;99.90
10722;DHT22;5412;59.450;18.124;2024-03-08T15:57:51;1.60;99.90